sensor_id;sensor_type;location;lat;lon;timestamp;P1;durP1;ratioP1;P2;durP2;ratioP2
31238;SDS011;17871;31.584;74.450;2023-03-01T00:01:50;38.88;;;19.30;;
31238;SDS011;17871;31.584;74.450;2023-03-01T00:04:19;35.35;;;18.77;;
31238;SDS011;17871;31.584;74.450;2023-03-01T00:06:47;35.47;;;19.13;;
31238;SDS011;17871;31.584;74.450;2023-03-01T00:09:16;33.80;;;17.70;;
31238;SDS011;17871;31.584;74.450;2023-03-01T00:11:45;29.17;;;14.85;;
31238;SDS011;17871;31.584;74.450;2023-03-01T00:14:14;24.65;;;14.10;;
31238;SDS011;17871;31.584;74.450;2023-03-01T00:16:46;25.42;;;14.07;;
31238;SDS011;17871;31.584;74.450;2023-03-01T00:19:16;23.95;;;13.98;;
31238;SDS011;17871;31.584;74.450;2023-03-01T00:21:46;31.02;;;14.10;;
31238;SDS011;17871;31.584;74.450;2023-03-01T00:24:16;22.02;;;11.55;;
31238;SDS011;17871;31.584;74.450;2023-03-01T00:26:45;24.75;;;12.55;;
31238;SDS011;17871;31.584;74.450;2023-03-01T00:29:14;22.50;;;10.48;;
31238;SDS011;17871;31.584;74.450;2023-03-01T00:31:43;23.08;;;12.13;;
31238;SDS011;17871;31.584;74.450;2023-03-01T00:34:11;22.98;;;11.85;;
31238;SDS011;17871;31.584;74.450;2023-03-01T00:36:40;24.30;;;13.70;;
31238;SDS011;17871;31.584;74.450;2023-03-01T00:39:13;25.33;;;14.77;;
31238;SDS011;17871;31.584;74.450;2023-03-01T00:41:43;30.25;;;15.38;;
31238;SDS011;17871;31.584;74.450;2023-03-01T00:44:12;29.65;;;14.15;;
31238;SDS011;17871;31.584;74.450;2023-03-01T00:46:41;35.15;;;13.88;;
31238;SDS011;17871;31.584;74.450;2023-03-01T00:49:09;30.35;;;15.85;;
31238;SDS011;17871;31.584;74.450;2023-03-01T00:51:38;38.25;;;18.27;;
31238;SDS011;17871;31.584;74.450;2023-03-01T00:54:09;34.25;;;18.00;;
31238;SDS011;17871;31.584;74.450;2023-03-01T00:56:38;37.95;;;17.98;;
31238;SDS011;17871;31.584;74.450;2023-03-01T00:59:06;30.67;;;17.92;;
31238;SDS011;17871;31.584;74.450;2023-03-01T01:01:35;43.85;;;20.15;;
31238;SDS011;17871;31.584;74.450;2023-03-01T01:04:06;38.10;;;19.58;;
31238;SDS011;17871;31.584;74.450;2023-03-01T01:06:38;29.58;;;17.45;;
31238;SDS011;17871;31.584;74.450;2023-03-01T01:09:13;27.58;;;15.13;;
31238;SDS011;17871;31.584;74.450;2023-03-01T01:11:48;27.50;;;17.73;;
31238;SDS011;17871;31.584;74.450;2023-03-01T01:14:19;33.15;;;17.55;;
31238;SDS011;17871;31.584;74.450;2023-03-01T01:16:49;32.38;;;20.05;;
31238;SDS011;17871;31.584;74.450;2023-03-01T01:19:19;43.33;;;20.15;;
31238;SDS011;17871;31.584;74.450;2023-03-01T01:21:49;33.92;;;19.10;;
31238;SDS011;17871;31.584;74.450;2023-03-01T01:24:18;39.63;;;18.52;;
31238;SDS011;17871;31.584;74.450;2023-03-01T01:26:48;30.33;;;17.02;;
31238;SDS011;17871;31.584;74.450;2023-03-01T01:29:18;29.65;;;16.98;;
31238;SDS011;17871;31.584;74.450;2023-03-01T01:31:47;34.15;;;16.67;;
31238;SDS011;17871;31.584;74.450;2023-03-01T01:34:18;28.35;;;16.65;;
31238;SDS011;17871;31.584;74.450;2023-03-01T01:36:49;33.25;;;16.73;;
31238;SDS011;17871;31.584;74.450;2023-03-01T01:39:22;26.90;;;16.95;;
31238;SDS011;17871;31.584;74.450;2023-03-01T01:41:51;26.52;;;15.70;;
31238;SDS011;17871;31.584;74.450;2023-03-01T01:44:22;24.13;;;14.55;;
31238;SDS011;17871;31.584;74.450;2023-03-01T01:46:57;21.90;;;13.65;;
31238;SDS011;17871;31.584;74.450;2023-03-01T01:52:05;54.65;;;37.78;;
31238;SDS011;17871;31.584;74.450;2023-03-01T01:57:19;24.48;;;17.38;;
31238;SDS011;17871;31.584;74.450;2023-03-01T01:59:54;21.40;;;12.60;;
31238;SDS011;17871;31.584;74.450;2023-03-01T02:02:39;28.75;;;19.35;;
31238;SDS011;17871;31.584;74.450;2023-03-01T02:07:44;28.35;;;14.63;;
31238;SDS011;17871;31.584;74.450;2023-03-01T02:10:19;29.92;;;15.13;;
31238;SDS011;17871;31.584;74.450;2023-03-01T02:12:50;30.27;;;14.52;;
31238;SDS011;17871;31.584;74.450;2023-03-01T02:15:20;21.73;;;13.13;;
31238;SDS011;17871;31.584;74.450;2023-03-01T02:17:50;21.17;;;13.00;;
31238;SDS011;17871;31.584;74.450;2023-03-01T02:20:23;25.88;;;13.38;;
31238;SDS011;17871;31.584;74.450;2023-03-01T02:23:08;22.13;;;13.68;;
31238;SDS011;17871;31.584;74.450;2023-03-01T02:25:44;26.58;;;14.55;;
31238;SDS011;17871;31.584;74.450;2023-03-01T02:28:42;27.67;;;17.73;;
31238;SDS011;17871;31.584;74.450;2023-03-01T02:31:14;29.35;;;16.13;;
31238;SDS011;17871;31.584;74.450;2023-03-01T02:34:04;51.33;;;16.77;;
31238;SDS011;17871;31.584;74.450;2023-03-01T02:36:38;25.10;;;14.35;;
31238;SDS011;17871;31.584;74.450;2023-03-01T02:39:15;66.53;;;17.05;;
31238;SDS011;17871;31.584;74.450;2023-03-01T02:41:50;22.25;;;13.05;;
31238;SDS011;17871;31.584;74.450;2023-03-01T02:46:52;26.88;;;13.65;;
31238;SDS011;17871;31.584;74.450;2023-03-01T02:49:29;30.50;;;14.65;;
31238;SDS011;17871;31.584;74.450;2023-03-01T02:55:09;26.83;;;13.82;;
31238;SDS011;17871;31.584;74.450;2023-03-01T02:57:41;28.67;;;14.73;;
31238;SDS011;17871;31.584;74.450;2023-03-01T03:00:13;29.43;;;13.87;;
31238;SDS011;17871;31.584;74.450;2023-03-01T03:02:50;24.73;;;13.43;;
31238;SDS011;17871;31.584;74.450;2023-03-01T03:05:23;28.35;;;14.20;;
31238;SDS011;17871;31.584;74.450;2023-03-01T03:07:57;26.30;;;13.32;;
31238;SDS011;17871;31.584;74.450;2023-03-01T03:10:35;26.58;;;15.07;;
31238;SDS011;17871;31.584;74.450;2023-03-01T03:13:08;25.17;;;12.75;;
31238;SDS011;17871;31.584;74.450;2023-03-01T03:15:41;23.20;;;13.10;;
31238;SDS011;17871;31.584;74.450;2023-03-01T03:18:12;28.60;;;14.50;;
31238;SDS011;17871;31.584;74.450;2023-03-01T03:20:43;22.60;;;14.05;;
31238;SDS011;17871;31.584;74.450;2023-03-01T03:23:13;25.67;;;12.10;;
31238;SDS011;17871;31.584;74.450;2023-03-01T03:25:42;23.02;;;12.02;;
31238;SDS011;17871;31.584;74.450;2023-03-01T03:28:10;23.52;;;13.40;;
31238;SDS011;17871;31.584;74.450;2023-03-01T03:30:40;20.83;;;12.02;;
31238;SDS011;17871;31.584;74.450;2023-03-01T03:33:10;21.10;;;13.13;;
31238;SDS011;17871;31.584;74.450;2023-03-01T03:35:44;30.73;;;14.68;;
31238;SDS011;17871;31.584;74.450;2023-03-01T03:38:16;23.92;;;11.77;;
31238;SDS011;17871;31.584;74.450;2023-03-01T03:40:48;25.88;;;12.38;;
31238;SDS011;17871;31.584;74.450;2023-03-01T03:43:20;20.35;;;11.32;;
31238;SDS011;17871;31.584;74.450;2023-03-01T03:45:51;25.20;;;11.20;;
31238;SDS011;17871;31.584;74.450;2023-03-01T03:48:20;22.45;;;11.50;;
31238;SDS011;17871;31.584;74.450;2023-03-01T03:50:50;22.45;;;11.48;;
31238;SDS011;17871;31.584;74.450;2023-03-01T03:55:50;18.60;;;10.57;;
31238;SDS011;17871;31.584;74.450;2023-03-01T03:58:20;17.50;;;10.98;;
31238;SDS011;17871;31.584;74.450;2023-03-01T04:00:54;17.40;;;10.10;;
31238;SDS011;17871;31.584;74.450;2023-03-01T04:03:25;18.52;;;11.70;;
31238;SDS011;17871;31.584;74.450;2023-03-01T04:05:57;23.60;;;11.93;;
31238;SDS011;17871;31.584;74.450;2023-03-01T04:08:27;17.33;;;9.25;;
31238;SDS011;17871;31.584;74.450;2023-03-01T04:10:57;23.67;;;10.20;;
31238;SDS011;17871;31.584;74.450;2023-03-01T04:13:49;18.35;;;10.75;;
31238;SDS011;17871;31.584;74.450;2023-03-01T04:16:18;18.80;;;10.55;;
31238;SDS011;17871;31.584;74.450;2023-03-01T04:18:47;21.75;;;10.65;;
31238;SDS011;17871;31.584;74.450;2023-03-01T04:21:16;16.13;;;10.45;;
31238;SDS011;17871;31.584;74.450;2023-03-01T04:23:45;21.13;;;10.57;;
31238;SDS011;17871;31.584;74.450;2023-03-01T04:26:14;18.80;;;10.27;;
31238;SDS011;17871;31.584;74.450;2023-03-01T04:28:42;16.85;;;10.57;;
31238;SDS011;17871;31.584;74.450;2023-03-01T04:31:14;23.45;;;10.75;;
31238;SDS011;17871;31.584;74.450;2023-03-01T04:36:17;20.95;;;10.48;;
31238;SDS011;17871;31.584;74.450;2023-03-01T04:38:47;18.40;;;9.65;;
31238;SDS011;17871;31.584;74.450;2023-03-01T04:41:18;20.15;;;9.90;;
31238;SDS011;17871;31.584;74.450;2023-03-01T04:43:49;23.42;;;11.80;;
31238;SDS011;17871;31.584;74.450;2023-03-01T04:46:19;17.13;;;9.23;;
31238;SDS011;17871;31.584;74.450;2023-03-01T04:48:56;35.53;;;19.17;;
31238;SDS011;17871;31.584;74.450;2023-03-01T04:51:25;32.92;;;17.98;;
31238;SDS011;17871;31.584;74.450;2023-03-01T04:53:54;33.88;;;17.55;;
31238;SDS011;17871;31.584;74.450;2023-03-01T04:56:23;34.85;;;18.08;;
31238;SDS011;17871;31.584;74.450;2023-03-01T04:58:55;29.40;;;14.60;;
31238;SDS011;17871;31.584;74.450;2023-03-01T05:01:23;29.00;;;13.25;;
31238;SDS011;17871;31.584;74.450;2023-03-01T05:03:52;30.15;;;13.35;;
31238;SDS011;17871;31.584;74.450;2023-03-01T05:06:21;31.65;;;15.80;;
31238;SDS011;17871;31.584;74.450;2023-03-01T05:08:50;28.77;;;15.43;;
31238;SDS011;17871;31.584;74.450;2023-03-01T05:11:19;27.05;;;14.40;;
31238;SDS011;17871;31.584;74.450;2023-03-01T05:13:47;32.65;;;14.68;;
31238;SDS011;17871;31.584;74.450;2023-03-01T05:16:17;32.50;;;14.80;;
31238;SDS011;17871;31.584;74.450;2023-03-01T05:18:47;30.67;;;14.75;;
31238;SDS011;17871;31.584;74.450;2023-03-01T05:21:18;34.30;;;15.30;;
31238;SDS011;17871;31.584;74.450;2023-03-01T05:23:46;47.45;;;28.23;;
31238;SDS011;17871;31.584;74.450;2023-03-01T05:26:16;28.13;;;15.07;;
31238;SDS011;17871;31.584;74.450;2023-03-01T05:29:05;46.05;;;21.90;;
31238;SDS011;17871;31.584;74.450;2023-03-01T05:31:34;38.05;;;17.08;;
31238;SDS011;17871;31.584;74.450;2023-03-01T05:34:03;26.52;;;14.48;;
31238;SDS011;17871;31.584;74.450;2023-03-01T05:36:32;37.30;;;15.68;;
31238;SDS011;17871;31.584;74.450;2023-03-01T05:39:02;36.53;;;15.40;;
31238;SDS011;17871;31.584;74.450;2023-03-01T05:41:31;34.38;;;16.15;;
31238;SDS011;17871;31.584;74.450;2023-03-01T05:44:00;29.67;;;13.60;;
31238;SDS011;17871;31.584;74.450;2023-03-01T05:46:28;22.98;;;12.95;;
31238;SDS011;17871;31.584;74.450;2023-03-01T05:48:57;31.08;;;14.63;;
31238;SDS011;17871;31.584;74.450;2023-03-01T05:51:27;61.50;;;36.33;;
31238;SDS011;17871;31.584;74.450;2023-03-01T05:53:57;50.10;;;25.25;;
31238;SDS011;17871;31.584;74.450;2023-03-01T05:56:25;53.13;;;27.55;;
31238;SDS011;17871;31.584;74.450;2023-03-01T05:58:55;45.47;;;23.65;;
31238;SDS011;17871;31.584;74.450;2023-03-01T06:01:23;21.27;;;11.68;;
31238;SDS011;17871;31.584;74.450;2023-03-01T06:03:52;40.28;;;14.30;;
31238;SDS011;17871;31.584;74.450;2023-03-01T06:06:21;24.90;;;12.38;;
31238;SDS011;17871;31.584;74.450;2023-03-01T06:08:50;28.50;;;14.65;;
31238;SDS011;17871;31.584;74.450;2023-03-01T06:11:20;22.63;;;9.90;;
31238;SDS011;17871;31.584;74.450;2023-03-01T06:13:49;21.60;;;11.13;;
31238;SDS011;17871;31.584;74.450;2023-03-01T06:16:18;132.23;;;46.85;;
31238;SDS011;17871;31.584;74.450;2023-03-01T06:18:47;40.90;;;16.92;;
31238;SDS011;17871;31.584;74.450;2023-03-01T06:21:15;68.45;;;27.63;;
31238;SDS011;17871;31.584;74.450;2023-03-01T06:23:44;92.22;;;29.77;;
31238;SDS011;17871;31.584;74.450;2023-03-01T06:26:13;84.22;;;30.25;;
31238;SDS011;17871;31.584;74.450;2023-03-01T06:28:42;82.30;;;28.30;;
31238;SDS011;17871;31.584;74.450;2023-03-01T06:31:14;157.65;;;51.83;;
31238;SDS011;17871;31.584;74.450;2023-03-01T06:33:42;57.08;;;21.38;;
31238;SDS011;17871;31.584;74.450;2023-03-01T06:36:12;13.75;;;8.32;;
31238;SDS011;17871;31.584;74.450;2023-03-01T06:38:41;33.67;;;14.45;;
31238;SDS011;17871;31.584;74.450;2023-03-01T06:41:10;23.10;;;8.75;;
31238;SDS011;17871;31.584;74.450;2023-03-01T06:43:39;13.88;;;6.88;;
31238;SDS011;17871;31.584;74.450;2023-03-01T06:46:08;10.18;;;6.20;;
31238;SDS011;17871;31.584;74.450;2023-03-01T06:48:37;29.13;;;11.02;;
31238;SDS011;17871;31.584;74.450;2023-03-01T06:51:06;11.27;;;6.50;;
31238;SDS011;17871;31.584;74.450;2023-03-01T06:53:34;10.75;;;6.60;;
31238;SDS011;17871;31.584;74.450;2023-03-01T06:56:03;8.60;;;6.20;;
31238;SDS011;17871;31.584;74.450;2023-03-01T06:58:32;16.80;;;8.93;;
31238;SDS011;17871;31.584;74.450;2023-03-01T07:01:04;19.40;;;10.25;;
31238;SDS011;17871;31.584;74.450;2023-03-01T07:03:34;27.58;;;11.82;;
31238;SDS011;17871;31.584;74.450;2023-03-01T07:06:03;37.35;;;13.73;;
31238;SDS011;17871;31.584;74.450;2023-03-01T07:08:32;29.55;;;12.13;;
31238;SDS011;17871;31.584;74.450;2023-03-01T07:11:00;27.77;;;12.60;;
31238;SDS011;17871;31.584;74.450;2023-03-01T07:13:31;15.68;;;6.88;;
31238;SDS011;17871;31.584;74.450;2023-03-01T07:16:00;13.48;;;7.13;;
31238;SDS011;17871;31.584;74.450;2023-03-01T07:18:29;14.88;;;7.88;;
31238;SDS011;17871;31.584;74.450;2023-03-01T07:20:58;16.02;;;6.50;;
31238;SDS011;17871;31.584;74.450;2023-03-01T07:23:31;19.90;;;7.32;;
31238;SDS011;17871;31.584;74.450;2023-03-01T07:26:00;16.20;;;7.63;;
31238;SDS011;17871;31.584;74.450;2023-03-01T07:28:29;15.10;;;7.90;;
31238;SDS011;17871;31.584;74.450;2023-03-01T07:31:02;15.95;;;7.22;;
31238;SDS011;17871;31.584;74.450;2023-03-01T07:33:32;12.70;;;6.40;;
31238;SDS011;17871;31.584;74.450;2023-03-01T07:36:01;12.85;;;7.07;;
31238;SDS011;17871;31.584;74.450;2023-03-01T07:38:31;14.82;;;8.13;;
31238;SDS011;17871;31.584;74.450;2023-03-01T07:41:01;15.15;;;7.18;;
31238;SDS011;17871;31.584;74.450;2023-03-01T07:43:31;14.27;;;6.07;;
31238;SDS011;17871;31.584;74.450;2023-03-01T07:46:00;14.90;;;6.07;;
31238;SDS011;17871;31.584;74.450;2023-03-01T07:48:30;13.93;;;6.53;;
31238;SDS011;17871;31.584;74.450;2023-03-01T07:51:01;15.63;;;7.22;;
31238;SDS011;17871;31.584;74.450;2023-03-01T07:53:32;10.50;;;5.90;;
31238;SDS011;17871;31.584;74.450;2023-03-01T07:58:38;13.10;;;7.18;;
31238;SDS011;17871;31.584;74.450;2023-03-01T08:01:09;9.63;;;7.15;;
31238;SDS011;17871;31.584;74.450;2023-03-01T08:03:40;13.82;;;7.30;;
31238;SDS011;17871;31.584;74.450;2023-03-01T08:06:10;21.73;;;8.15;;
31238;SDS011;17871;31.584;74.450;2023-03-01T08:08:41;20.85;;;8.35;;
31238;SDS011;17871;31.584;74.450;2023-03-01T08:11:10;20.92;;;6.88;;
31238;SDS011;17871;31.584;74.450;2023-03-01T08:13:41;17.15;;;7.35;;
31238;SDS011;17871;31.584;74.450;2023-03-01T08:16:11;16.67;;;7.60;;
31238;SDS011;17871;31.584;74.450;2023-03-01T08:18:42;10.57;;;5.65;;
31238;SDS011;17871;31.584;74.450;2023-03-01T08:21:14;11.55;;;6.70;;
31238;SDS011;17871;31.584;74.450;2023-03-01T08:23:45;12.05;;;6.65;;
31238;SDS011;17871;31.584;74.450;2023-03-01T08:26:14;9.02;;;6.43;;
31238;SDS011;17871;31.584;74.450;2023-03-01T08:28:48;10.85;;;5.50;;
31238;SDS011;17871;31.584;74.450;2023-03-01T08:33:53;17.30;;;6.43;;
31238;SDS011;17871;31.584;74.450;2023-03-01T08:36:24;8.13;;;4.97;;
31238;SDS011;17871;31.584;74.450;2023-03-01T08:38:56;16.13;;;5.82;;
31238;SDS011;17871;31.584;74.450;2023-03-01T08:41:25;9.52;;;5.20;;
31238;SDS011;17871;31.584;74.450;2023-03-01T08:43:54;15.93;;;5.40;;
31238;SDS011;17871;31.584;74.450;2023-03-01T08:46:27;10.50;;;5.40;;
31238;SDS011;17871;31.584;74.450;2023-03-01T08:48:58;6.35;;;4.05;;
31238;SDS011;17871;31.584;74.450;2023-03-01T08:51:27;11.95;;;5.32;;
31238;SDS011;17871;31.584;74.450;2023-03-01T08:53:57;9.95;;;5.45;;
31238;SDS011;17871;31.584;74.450;2023-03-01T08:56:25;11.50;;;5.18;;
31238;SDS011;17871;31.584;74.450;2023-03-01T08:58:55;7.10;;;4.80;;
31238;SDS011;17871;31.584;74.450;2023-03-01T09:01:23;12.00;;;6.00;;
31238;SDS011;17871;31.584;74.450;2023-03-01T09:03:53;11.23;;;5.28;;
31238;SDS011;17871;31.584;74.450;2023-03-01T09:06:22;6.13;;;4.63;;
31238;SDS011;17871;31.584;74.450;2023-03-01T09:08:51;9.98;;;4.97;;
31238;SDS011;17871;31.584;74.450;2023-03-01T09:11:21;10.68;;;3.90;;
31238;SDS011;17871;31.584;74.450;2023-03-01T09:13:50;10.50;;;4.72;;
31238;SDS011;17871;31.584;74.450;2023-03-01T09:16:20;14.15;;;5.65;;
31238;SDS011;17871;31.584;74.450;2023-03-01T09:18:51;10.93;;;4.95;;
31238;SDS011;17871;31.584;74.450;2023-03-01T09:21:22;13.65;;;7.00;;
31238;SDS011;17871;31.584;74.450;2023-03-01T09:24:07;16.88;;;7.03;;
31238;SDS011;17871;31.584;74.450;2023-03-01T09:26:42;21.40;;;12.85;;
31238;SDS011;17871;31.584;74.450;2023-03-01T09:29:11;47.38;;;25.40;;
31238;SDS011;17871;31.584;74.450;2023-03-01T09:31:40;10.82;;;4.63;;
31238;SDS011;17871;31.584;74.450;2023-03-01T09:34:10;13.48;;;5.25;;
31238;SDS011;17871;31.584;74.450;2023-03-01T09:36:39;8.13;;;5.95;;
31238;SDS011;17871;31.584;74.450;2023-03-01T09:39:10;10.82;;;6.85;;
31238;SDS011;17871;31.584;74.450;2023-03-01T09:44:29;16.65;;;10.02;;
31238;SDS011;17871;31.584;74.450;2023-03-01T09:55:11;28.45;;;14.52;;
31238;SDS011;17871;31.584;74.450;2023-03-01T10:00:44;27.00;;;8.90;;
31238;SDS011;17871;31.584;74.450;2023-03-01T10:03:24;26.58;;;13.48;;
31238;SDS011;17871;31.584;74.450;2023-03-01T10:06:02;12.98;;;6.07;;
31238;SDS011;17871;31.584;74.450;2023-03-01T10:11:17;10.32;;;5.40;;
31238;SDS011;17871;31.584;74.450;2023-03-01T10:14:01;12.55;;;4.88;;
31238;SDS011;17871;31.584;74.450;2023-03-01T10:19:40;12.75;;;4.82;;
31238;SDS011;17871;31.584;74.450;2023-03-01T10:22:13;8.70;;;4.85;;
31238;SDS011;17871;31.584;74.450;2023-03-01T10:24:46;10.18;;;4.78;;
31238;SDS011;17871;31.584;74.450;2023-03-01T10:35:48;14.35;;;6.13;;
31238;SDS011;17871;31.584;74.450;2023-03-01T10:38:17;11.68;;;6.13;;
31238;SDS011;17871;31.584;74.450;2023-03-01T10:51:43;18.65;;;5.88;;
31238;SDS011;17871;31.584;74.450;2023-03-01T10:54:30;11.37;;;6.13;;
31238;SDS011;17871;31.584;74.450;2023-03-01T10:57:02;10.57;;;4.80;;
31238;SDS011;17871;31.584;74.450;2023-03-01T10:59:33;17.30;;;5.97;;
31238;SDS011;17871;31.584;74.450;2023-03-01T11:07:27;10.32;;;5.18;;
31238;SDS011;17871;31.584;74.450;2023-03-01T11:09:56;12.88;;;5.05;;
31238;SDS011;17871;31.584;74.450;2023-03-01T11:12:25;14.23;;;5.35;;
31238;SDS011;17871;31.584;74.450;2023-03-01T11:14:57;23.02;;;4.45;;
31238;SDS011;17871;31.584;74.450;2023-03-01T11:17:30;17.45;;;5.47;;
31238;SDS011;17871;31.584;74.450;2023-03-01T11:22:56;7.70;;;4.68;;
31238;SDS011;17871;31.584;74.450;2023-03-01T11:25:33;12.68;;;5.00;;
31238;SDS011;17871;31.584;74.450;2023-03-01T11:28:05;14.93;;;4.60;;
31238;SDS011;17871;31.584;74.450;2023-03-01T11:39:03;19.17;;;5.47;;
31238;SDS011;17871;31.584;74.450;2023-03-01T11:41:47;17.48;;;7.53;;
31238;SDS011;17871;31.584;74.450;2023-03-01T11:44:24;24.85;;;7.63;;
31238;SDS011;17871;31.584;74.450;2023-03-01T11:49:38;17.10;;;6.00;;
31238;SDS011;17871;31.584;74.450;2023-03-01T11:55:14;24.88;;;9.38;;
31238;SDS011;17871;31.584;74.450;2023-03-01T12:06:50;30.55;;;12.68;;
31238;SDS011;17871;31.584;74.450;2023-03-01T12:09:28;30.70;;;9.70;;
31238;SDS011;17871;31.584;74.450;2023-03-01T12:20:38;21.52;;;11.10;;
31238;SDS011;17871;31.584;74.450;2023-03-01T12:34:35;19.48;;;9.98;;
31238;SDS011;17871;31.584;74.450;2023-03-01T12:42:44;19.77;;;7.90;;
31238;SDS011;17871;31.584;74.450;2023-03-01T12:45:31;22.42;;;7.45;;
31238;SDS011;17871;31.584;74.450;2023-03-01T12:51:08;37.00;;;12.25;;
31238;SDS011;17871;31.584;74.450;2023-03-01T12:53:49;39.00;;;15.77;;
31238;SDS011;17871;31.584;74.450;2023-03-01T12:56:22;33.58;;;18.20;;
31238;SDS011;17871;31.584;74.450;2023-03-01T12:59:02;39.97;;;19.58;;
31238;SDS011;17871;31.584;74.450;2023-03-01T13:02:30;33.35;;;16.60;;
31238;SDS011;17871;31.584;74.450;2023-03-01T13:05:00;47.38;;;19.20;;
31238;SDS011;17871;31.584;74.450;2023-03-01T13:13:30;28.27;;;14.75;;
31238;SDS011;17871;31.584;74.450;2023-03-01T13:16:19;31.27;;;15.45;;
31238;SDS011;17871;31.584;74.450;2023-03-01T13:21:44;67.85;;;30.08;;
31238;SDS011;17871;31.584;74.450;2023-03-01T13:24:35;56.80;;;26.40;;
31238;SDS011;17871;31.584;74.450;2023-03-01T13:29:58;92.50;;;37.88;;
31238;SDS011;17871;31.584;74.450;2023-03-01T13:37:49;51.20;;;23.08;;
31238;SDS011;17871;31.584;74.450;2023-03-01T13:42:48;66.75;;;27.40;;
31238;SDS011;17871;31.584;74.450;2023-03-01T13:45:36;68.85;;;25.77;;
31238;SDS011;17871;31.584;74.450;2023-03-01T13:48:15;54.03;;;22.63;;
31238;SDS011;17871;31.584;74.450;2023-03-01T13:51:07;74.78;;;27.30;;
31238;SDS011;17871;31.584;74.450;2023-03-01T13:53:43;67.40;;;28.20;;
31238;SDS011;17871;31.584;74.450;2023-03-01T13:56:19;62.30;;;26.83;;
31238;SDS011;17871;31.584;74.450;2023-03-01T14:01:26;48.17;;;21.92;;
31238;SDS011;17871;31.584;74.450;2023-03-01T14:03:57;44.60;;;21.27;;
31238;SDS011;17871;31.584;74.450;2023-03-01T14:06:28;57.03;;;21.73;;
31238;SDS011;17871;31.584;74.450;2023-03-01T14:20:20;37.35;;;19.10;;
31238;SDS011;17871;31.584;74.450;2023-03-01T14:23:01;46.17;;;23.00;;
31238;SDS011;17871;31.584;74.450;2023-03-01T14:25:37;40.45;;;21.95;;
31238;SDS011;17871;31.584;74.450;2023-03-01T14:28:15;43.63;;;18.85;;
31238;SDS011;17871;31.584;74.450;2023-03-01T14:30:48;26.52;;;15.95;;
31238;SDS011;17871;31.584;74.450;2023-03-01T14:33:27;35.15;;;17.52;;
31238;SDS011;17871;31.584;74.450;2023-03-01T14:36:04;31.65;;;16.20;;
31238;SDS011;17871;31.584;74.450;2023-03-01T14:38:44;44.53;;;18.75;;
31238;SDS011;17871;31.584;74.450;2023-03-01T14:41:15;42.88;;;19.42;;
31238;SDS011;17871;31.584;74.450;2023-03-01T14:43:52;43.25;;;20.42;;
31238;SDS011;17871;31.584;74.450;2023-03-01T14:49:04;56.40;;;21.38;;
31238;SDS011;17871;31.584;74.450;2023-03-01T14:52:04;43.75;;;22.30;;
31238;SDS011;17871;31.584;74.450;2023-03-01T14:54:40;48.92;;;23.40;;
31238;SDS011;17871;31.584;74.450;2023-03-01T14:57:31;40.78;;;22.83;;
31238;SDS011;17871;31.584;74.450;2023-03-01T15:00:02;50.40;;;22.13;;
31238;SDS011;17871;31.584;74.450;2023-03-01T15:02:34;46.22;;;21.17;;
31238;SDS011;17871;31.584;74.450;2023-03-01T15:05:05;48.70;;;23.55;;
31238;SDS011;17871;31.584;74.450;2023-03-01T15:07:38;54.72;;;25.25;;
31238;SDS011;17871;31.584;74.450;2023-03-01T15:10:16;68.50;;;28.17;;
31238;SDS011;17871;31.584;74.450;2023-03-01T15:12:49;52.70;;;24.15;;
31238;SDS011;17871;31.584;74.450;2023-03-01T15:15:34;48.80;;;20.58;;
31238;SDS011;17871;31.584;74.450;2023-03-01T15:18:13;49.80;;;20.58;;
31238;SDS011;17871;31.584;74.450;2023-03-01T15:21:13;37.47;;;19.90;;
31238;SDS011;17871;31.584;74.450;2023-03-01T15:23:51;50.63;;;22.35;;
31238;SDS011;17871;31.584;74.450;2023-03-01T15:26:24;44.88;;;23.17;;
31238;SDS011;17871;31.584;74.450;2023-03-01T15:29:27;101.93;;;36.22;;
31238;SDS011;17871;31.584;74.450;2023-03-01T15:32:03;98.72;;;38.03;;
31238;SDS011;17871;31.584;74.450;2023-03-01T15:34:35;92.88;;;34.83;;
31238;SDS011;17871;31.584;74.450;2023-03-01T15:37:06;79.60;;;28.77;;
31238;SDS011;17871;31.584;74.450;2023-03-01T15:40:20;66.40;;;28.10;;
31238;SDS011;17871;31.584;74.450;2023-03-01T15:43:02;65.90;;;29.50;;
31238;SDS011;17871;31.584;74.450;2023-03-01T15:45:33;65.53;;;26.83;;
31238;SDS011;17871;31.584;74.450;2023-03-01T15:48:05;57.03;;;23.08;;
31238;SDS011;17871;31.584;74.450;2023-03-01T15:50:54;44.38;;;19.13;;
31238;SDS011;17871;31.584;74.450;2023-03-01T15:53:26;43.45;;;19.25;;
31238;SDS011;17871;31.584;74.450;2023-03-01T15:55:56;49.78;;;21.60;;
31238;SDS011;17871;31.584;74.450;2023-03-01T15:58:25;65.22;;;28.23;;
31238;SDS011;17871;31.584;74.450;2023-03-01T16:00:54;80.97;;;33.10;;
31238;SDS011;17871;31.584;74.450;2023-03-01T16:03:28;101.30;;;35.28;;
31238;SDS011;17871;31.584;74.450;2023-03-01T16:05:57;76.05;;;30.02;;
31238;SDS011;17871;31.584;74.450;2023-03-01T16:08:26;65.80;;;25.42;;
31238;SDS011;17871;31.584;74.450;2023-03-01T16:10:55;56.50;;;23.95;;
31238;SDS011;17871;31.584;74.450;2023-03-01T16:13:24;39.58;;;18.55;;
31238;SDS011;17871;31.584;74.450;2023-03-01T16:15:55;27.33;;;13.88;;
31238;SDS011;17871;31.584;74.450;2023-03-01T16:18:24;30.15;;;12.82;;
31238;SDS011;17871;31.584;74.450;2023-03-01T16:20:56;25.90;;;12.73;;
31238;SDS011;17871;31.584;74.450;2023-03-01T16:23:24;33.72;;;14.25;;
31238;SDS011;17871;31.584;74.450;2023-03-01T16:25:53;36.55;;;15.45;;
31238;SDS011;17871;31.584;74.450;2023-03-01T16:28:26;42.63;;;18.48;;
31238;SDS011;17871;31.584;74.450;2023-03-01T16:30:56;39.78;;;20.38;;
31238;SDS011;17871;31.584;74.450;2023-03-01T16:33:25;42.28;;;19.52;;
31238;SDS011;17871;31.584;74.450;2023-03-01T16:36:01;47.78;;;22.88;;
31238;SDS011;17871;31.584;74.450;2023-03-01T16:38:35;58.92;;;27.05;;
31238;SDS011;17871;31.584;74.450;2023-03-01T16:41:04;43.47;;;25.67;;
31238;SDS011;17871;31.584;74.450;2023-03-01T16:43:33;54.00;;;27.15;;
31238;SDS011;17871;31.584;74.450;2023-03-01T16:46:09;58.30;;;28.50;;
31238;SDS011;17871;31.584;74.450;2023-03-01T16:48:42;46.03;;;26.70;;
31238;SDS011;17871;31.584;74.450;2023-03-01T16:51:10;47.67;;;22.23;;
31238;SDS011;17871;31.584;74.450;2023-03-01T16:53:40;43.60;;;22.05;;
31238;SDS011;17871;31.584;74.450;2023-03-01T16:56:12;39.78;;;18.83;;
31238;SDS011;17871;31.584;74.450;2023-03-01T16:58:42;43.00;;;19.38;;
31238;SDS011;17871;31.584;74.450;2023-03-01T17:01:13;35.90;;;17.92;;
31238;SDS011;17871;31.584;74.450;2023-03-01T17:03:45;34.60;;;18.70;;
31238;SDS011;17871;31.584;74.450;2023-03-01T17:06:16;45.42;;;18.45;;
31238;SDS011;17871;31.584;74.450;2023-03-01T17:08:48;31.13;;;16.98;;
31238;SDS011;17871;31.584;74.450;2023-03-01T17:11:18;35.28;;;16.83;;
31238;SDS011;17871;31.584;74.450;2023-03-01T17:13:48;38.70;;;15.82;;
31238;SDS011;17871;31.584;74.450;2023-03-01T17:16:17;37.60;;;16.85;;
31238;SDS011;17871;31.584;74.450;2023-03-01T17:18:48;36.55;;;18.42;;
31238;SDS011;17871;31.584;74.450;2023-03-01T17:21:17;31.25;;;16.15;;
31238;SDS011;17871;31.584;74.450;2023-03-01T17:23:46;32.70;;;14.98;;